sensor_id;sensor_type;location;lat;lon;timestamp;temperature;humidity
20457;DHT22;10387;51.102;6.848;2022-08-24T04:19:18;18.10;99.90
20457;DHT22;10387;51.102;6.848;2022-08-24T04:21:44;18.50;99.90
20457;DHT22;10387;51.102;6.848;2022-08-24T04:24:11;18.10;99.90
20457;DHT22;10387;51.102;6.848;2022-08-24T04:26:40;18.30;99.90
20457;DHT22;10387;51.102;6.848;2022-08-24T04:29:08;18.00;99.90
20457;DHT22;10387;51.102;6.848;2022-08-24T04:31:39;18.10;99.90
20457;DHT22;10387;51.102;6.848;2022-08-24T04:41:45;17.90;99.90
20457;DHT22;10387;51.102;6.848;2022-08-24T04:44:11;18.00;99.90
20457;DHT22;10387;51.102;6.848;2022-08-24T04:46:38;17.90;99.90
20457;DHT22;10387;51.102;6.848;2022-08-24T04:56:24;18.00;99.90
20457;DHT22;10387;51.102;6.848;2022-08-24T04:58:54;18.50;99.90
20457;DHT22;10387;51.102;6.848;2022-08-24T05:01:22;18.60;99.90
20457;DHT22;10387;51.102;6.848;2022-08-24T05:03:50;18.30;99.90
20457;DHT22;10387;51.102;6.848;2022-08-24T05:06:25;18.10;99.90
20457;DHT22;10387;51.102;6.848;2022-08-24T05:08:51;18.00;99.90
20457;DHT22;10387;51.102;6.848;2022-08-24T05:11:19;18.00;99.90
20457;DHT22;10387;51.102;6.848;2022-08-24T20:39:15;27.20;99.90
20457;DHT22;10387;51.102;6.848;2022-08-24T20:41:43;27.60;99.90
20457;DHT22;10387;51.102;6.848;2022-08-24T20:44:10;27.30;99.90
20457;DHT22;10387;51.102;6.848;2022-08-24T20:46:39;26.90;99.90
20457;DHT22;10387;51.102;6.848;2022-08-24T20:49:07;26.90;99.90
20457;DHT22;10387;51.102;6.848;2022-08-24T20:51:34;26.40;99.90
20457;DHT22;10387;51.102;6.848;2022-08-24T20:54:00;26.30;99.90
20457;DHT22;10387;51.102;6.848;2022-08-24T20:56:29;26.30;99.90
20457;DHT22;10387;51.102;6.848;2022-08-24T20:58:55;26.20;99.90
20457;DHT22;10387;51.102;6.848;2022-08-24T21:01:21;26.10;99.90
20457;DHT22;10387;51.102;6.848;2022-08-24T21:03:47;26.10;99.90
20457;DHT22;10387;51.102;6.848;2022-08-24T21:06:18;26.30;99.90
20457;DHT22;10387;51.102;6.848;2022-08-24T21:08:47;25.80;99.90
20457;DHT22;10387;51.102;6.848;2022-08-24T21:11:14;26.20;99.90
20457;DHT22;10387;51.102;6.848;2022-08-24T21:13:40;25.90;99.90
20457;DHT22;10387;51.102;6.848;2022-08-24T21:16:08;25.90;99.90
20457;DHT22;10387;51.102;6.848;2022-08-24T21:18:34;25.60;99.90
20457;DHT22;10387;51.102;6.848;2022-08-24T21:21:02;25.50;99.90
20457;DHT22;10387;51.102;6.848;2022-08-24T21:23:28;25.80;99.90
20457;DHT22;10387;51.102;6.848;2022-08-24T21:25:53;25.40;99.90
20457;DHT22;10387;51.102;6.848;2022-08-24T21:33:12;25.40;99.90
20457;DHT22;10387;51.102;6.848;2022-08-24T21:35:56;25.10;99.90
20457;DHT22;10387;51.102;6.848;2022-08-24T21:38:23;25.20;99.90
20457;DHT22;10387;51.102;6.848;2022-08-24T21:40:49;25.40;99.90
20457;DHT22;10387;51.102;6.848;2022-08-24T21:43:15;25.00;99.90
20457;DHT22;10387;51.102;6.848;2022-08-24T21:45:45;25.30;99.90
20457;DHT22;10387;51.102;6.848;2022-08-24T21:48:12;25.10;99.90
20457;DHT22;10387;51.102;6.848;2022-08-24T21:50:37;25.30;99.90
20457;DHT22;10387;51.102;6.848;2022-08-24T21:53:03;24.90;99.90
20457;DHT22;10387;51.102;6.848;2022-08-24T21:55:29;25.10;99.90
20457;DHT22;10387;51.102;6.848;2022-08-24T21:57:54;25.00;99.90
20457;DHT22;10387;51.102;6.848;2022-08-24T22:00:21;24.80;99.90
20457;DHT22;10387;51.102;6.848;2022-08-24T22:02:48;24.70;99.90
20457;DHT22;10387;51.102;6.848;2022-08-24T22:05:15;25.00;99.90
20457;DHT22;10387;51.102;6.848;2022-08-24T22:07:41;24.70;99.90
20457;DHT22;10387;51.102;6.848;2022-08-24T22:10:07;25.00;99.90
20457;DHT22;10387;51.102;6.848;2022-08-24T22:12:34;25.00;99.90
20457;DHT22;10387;51.102;6.848;2022-08-24T22:15:02;24.60;99.90
20457;DHT22;10387;51.102;6.848;2022-08-24T22:17:29;24.60;99.90
20457;DHT22;10387;51.102;6.848;2022-08-24T22:19:54;24.70;99.90
20457;DHT22;10387;51.102;6.848;2022-08-24T22:22:21;24.50;99.90
20457;DHT22;10387;51.102;6.848;2022-08-24T22:24:46;24.70;99.90
20457;DHT22;10387;51.102;6.848;2022-08-24T22:27:12;24.80;99.90
20457;DHT22;10387;51.102;6.848;2022-08-24T22:29:38;24.70;99.90
20457;DHT22;10387;51.102;6.848;2022-08-24T22:32:04;24.50;99.90
20457;DHT22;10387;51.102;6.848;2022-08-24T22:34:30;24.70;99.90
20457;DHT22;10387;51.102;6.848;2022-08-24T22:36:56;24.30;99.90
20457;DHT22;10387;51.102;6.848;2022-08-24T22:39:24;24.50;99.90
20457;DHT22;10387;51.102;6.848;2022-08-24T22:41:49;24.40;99.90
20457;DHT22;10387;51.102;6.848;2022-08-24T22:44:15;24.20;99.90
20457;DHT22;10387;51.102;6.848;2022-08-24T22:46:49;24.30;99.90
20457;DHT22;10387;51.102;6.848;2022-08-24T22:49:17;24.10;99.90
20457;DHT22;10387;51.102;6.848;2022-08-24T22:51:43;24.00;99.90
20457;DHT22;10387;51.102;6.848;2022-08-24T22:54:10;24.10;99.90
20457;DHT22;10387;51.102;6.848;2022-08-24T22:56:39;24.30;99.90
20457;DHT22;10387;51.102;6.848;2022-08-24T22:59:06;24.00;99.90
20457;DHT22;10387;51.102;6.848;2022-08-24T23:01:38;24.20;99.90
20457;DHT22;10387;51.102;6.848;2022-08-24T23:04:09;23.90;99.90
20457;DHT22;10387;51.102;6.848;2022-08-24T23:06:36;23.90;99.90
20457;DHT22;10387;51.102;6.848;2022-08-24T23:09:03;23.80;99.90
20457;DHT22;10387;51.102;6.848;2022-08-24T23:11:30;23.90;99.90
20457;DHT22;10387;51.102;6.848;2022-08-24T23:13:57;24.00;99.90
20457;DHT22;10387;51.102;6.848;2022-08-24T23:16:25;24.10;99.90
20457;DHT22;10387;51.102;6.848;2022-08-24T23:18:51;23.90;99.90
20457;DHT22;10387;51.102;6.848;2022-08-24T23:21:36;24.00;99.90
20457;DHT22;10387;51.102;6.848;2022-08-24T23:24:02;23.60;99.90
20457;DHT22;10387;51.102;6.848;2022-08-24T23:26:28;23.90;99.90
20457;DHT22;10387;51.102;6.848;2022-08-24T23:28:56;23.70;99.90
20457;DHT22;10387;51.102;6.848;2022-08-24T23:31:22;23.60;99.90
20457;DHT22;10387;51.102;6.848;2022-08-24T23:33:48;23.40;99.90
20457;DHT22;10387;51.102;6.848;2022-08-24T23:36:17;23.40;99.90
20457;DHT22;10387;51.102;6.848;2022-08-24T23:38:46;23.30;99.90
20457;DHT22;10387;51.102;6.848;2022-08-24T23:41:21;23.70;99.90
20457;DHT22;10387;51.102;6.848;2022-08-24T23:43:47;23.40;99.90
20457;DHT22;10387;51.102;6.848;2022-08-24T23:46:13;23.30;99.90
20457;DHT22;10387;51.102;6.848;2022-08-24T23:48:39;23.60;99.90
20457;DHT22;10387;51.102;6.848;2022-08-24T23:51:14;23.60;99.90
20457;DHT22;10387;51.102;6.848;2022-08-24T23:53:41;23.20;99.90
20457;DHT22;10387;51.102;6.848;2022-08-24T23:56:47;23.10;99.90
20457;DHT22;10387;51.102;6.848;2022-08-24T23:59:12;23.40;99.90
